Time;durP1;ratioP1;P1;durP2;ratioP2;P2;SDS_P1;SDS_P2;PMS_P1;PMS_P2;Temp;Humidity;BMP_temperature;BMP_pressure;BME280_temperature;BME280_humidity;BME280_pressure;Samples;Min_cycle;Max_cycle;Signal;HPM_P1;HPM_P2
2023/03/03 00:00:40;;;;;;;19.83;13.02;;;1.90;99.90;;;;;;5045776;28;20610;-74
2023/03/03 00:03:10;;;;;;;22.13;12.52;;;1.90;99.90;;;;;;5052880;28;20209;-74
2023/03/03 00:05:38;;;;;;;19.27;12.45;;;1.90;99.90;;;;;;5053262;28;20219;-74
2023/03/03 00:08:05;;;;;;;23.67;12.40;;;1.90;99.90;;;;;;5044815;28;20233;-73
2023/03/03 00:10:33;;;;;;;20.80;11.15;;;1.90;99.90;;;;;;5034854;28;20198;-73
2023/03/03 00:13:00;;;;;;;20.35;11.25;;;1.90;99.90;;;;;;5033789;28;20202;-73
2023/03/03 00:15:28;;;;;;;19.25;10.93;;;1.90;99.90;;;;;;5025131;28;20193;-73
2023/03/03 00:17:55;;;;;;;19.08;10.48;;;1.90;99.90;;;;;;5041078;28;20225;-74
2023/03/03 00:20:34;;;;;;;16.30;11.00;;;1.90;99.90;;;;;;5053320;28;20239;-74
2023/03/03 00:23:14;;;;;;;19.23;11.77;;;1.90;99.90;;;;;;5054631;28;20212;-74
2023/03/03 00:25:44;;;;;;;19.48;10.40;;;1.80;99.90;;;;;;5027707;28;20213;-73
2023/03/03 00:28:27;;;;;;;18.13;11.25;;;1.80;99.90;;;;;;5043039;28;20225;-73
2023/03/03 00:30:57;;;;;;;19.33;11.75;;;1.70;99.90;;;;;;5054014;28;20201;-73
2023/03/03 00:33:31;;;;;;;19.60;12.45;;;1.70;99.90;;;;;;5054556;28;20202;-73
2023/03/03 00:36:20;;;;;;;19.42;11.93;;;1.70;99.90;;;;;;5044196;28;20197;-73
2023/03/03 00:38:47;;;;;;;17.42;12.07;;;1.60;99.90;;;;;;5033914;28;20279;-73
2023/03/03 00:41:22;;;;;;;22.20;10.85;;;1.50;99.90;;;;;;5048982;28;20209;-73
2023/03/03 00:43:50;;;;;;;19.40;10.95;;;1.40;99.90;;;;;;5050409;28;20664;-73
2023/03/03 00:46:18;;;;;;;22.92;15.27;;;1.40;99.90;;;;;;5050607;28;20225;-72
2023/03/03 00:48:47;;;;;;;31.75;15.02;;;1.40;99.90;;;;;;5036733;28;20221;-72
2023/03/03 00:51:26;;;;;;;18.52;10.65;;;1.40;99.90;;;;;;5030592;28;20209;-73
2023/03/03 00:53:53;;;;;;;23.00;12.88;;;1.30;99.90;;;;;;5030388;28;20237;-72
2023/03/03 00:56:21;;;;;;;19.50;11.38;;;1.30;99.90;;;;;;5030699;28;20205;-73
2023/03/03 00:58:49;;;;;;;19.55;11.73;;;1.20;99.90;;;;;;5045173;28;20309;-73
2023/03/03 01:01:16;;;;;;;19.13;11.45;;;1.10;99.90;;;;;;5050582;28;20201;-72
2023/03/03 01:03:44;;;;;;;14.27;10.13;;;1.10;99.90;;;;;;5050206;28;20203;-73
2023/03/03 01:06:11;;;;;;;18.95;11.60;;;1.00;99.90;;;;;;5050212;28;20225;-72
2023/03/03 01:08:38;;;;;;;30.10;12.63;;;0.90;99.90;;;;;;5037513;28;20221;-72
2023/03/03 01:11:10;;;;;;;20.98;11.80;;;0.80;99.90;;;;;;5030178;28;20209;-73
2023/03/03 01:13:40;;;;;;;17.45;10.77;;;0.80;99.90;;;;;;5030194;28;20198;-72
2023/03/03 01:16:08;;;;;;;15.00;10.48;;;0.70;99.90;;;;;;5030603;28;20205;-72
2023/03/03 01:18:36;;;;;;;25.35;12.73;;;0.70;99.90;;;;;;5030409;28;20224;-72
2023/03/03 01:21:04;;;;;;;24.85;13.10;;;0.60;99.90;;;;;;5030387;28;20206;-72
2023/03/03 01:25:59;;;;;;;18.25;10.75;;;0.60;99.90;;;;;;5022954;28;20791;-74
2023/03/03 01:28:25;;;;;;;23.60;11.88;;;0.50;99.90;;;;;;5022955;28;20240;-74
2023/03/03 01:30:53;;;;;;;22.88;11.20;;;0.40;99.90;;;;;;5029146;28;20229;-74
2023/03/03 01:33:20;;;;;;;21.30;12.23;;;0.40;99.90;;;;;;5033279;28;20206;-73
2023/03/03 01:35:48;;;;;;;17.38;11.15;;;0.40;99.90;;;;;;5033346;28;20209;-74
2023/03/03 01:38:15;;;;;;;22.95;12.02;;;0.30;99.90;;;;;;5033906;28;20226;-74
2023/03/03 01:40:42;;;;;;;23.10;11.63;;;0.30;99.90;;;;;;5034545;28;20201;-74
2023/03/03 01:43:12;;;;;;;21.88;11.90;;;0.20;99.90;;;;;;5016554;28;20705;-73
2023/03/03 01:45:59;;;;;;;23.88;12.50;;;0.20;99.90;;;;;;5012057;28;20218;-74
2023/03/03 01:48:31;;;;;;;20.77;11.10;;;0.10;99.90;;;;;;5011571;28;20286;-74
2023/03/03 01:51:02;;;;;;;17.08;10.38;;;0.10;99.90;;;;;;5018840;28;20202;-74
2023/03/03 01:53:35;;;;;;;26.02;13.15;;;0.10;99.90;;;;;;5030402;28;20574;-73
2023/03/03 01:56:03;;;;;;;21.35;11.43;;;0.00;99.90;;;;;;5030925;28;20204;-74
2023/03/03 01:58:33;;;;;;;23.58;12.32;;;0.00;99.90;;;;;;5031121;28;20228;-74
2023/03/03 02:01:04;;;;;;;26.80;12.85;;;-0.10;99.90;;;;;;5031326;28;20208;-75
2023/03/03 02:03:33;;;;;;;21.55;11.30;;;-0.10;99.90;;;;;;5030885;28;20212;-74
2023/03/03 02:06:04;;;;;;;19.50;11.18;;;-0.20;99.90;;;;;;5032096;28;20697;-74
2023/03/03 02:08:39;;;;;;;18.50;9.60;;;-0.20;99.90;;;;;;5032881;28;20225;-75
2023/03/03 02:11:07;;;;;;;20.77;11.10;;;-0.20;99.90;;;;;;5032127;28;20205;-74
2023/03/03 02:13:33;;;;;;;21.70;11.65;;;-0.20;99.90;;;;;;5012054;28;20689;-74
2023/03/03 02:16:00;;;;;;;25.45;12.00;;;-0.30;99.90;;;;;;5010865;28;20198;-74
2023/03/03 02:18:28;;;;;;;18.65;10.48;;;-0.30;99.90;;;;;;5010431;28;20222;-74
2023/03/03 02:21:00;;;;;;;20.75;10.98;;;-0.30;99.90;;;;;;5116143;22;20294;-69
2023/03/03 02:23:33;;;;;;;18.00;11.50;;;-0.30;99.90;;;;;;5048739;28;20208;-68
2023/03/03 02:26:06;;;;;;;22.73;13.02;;;-0.30;99.90;;;;;;5049125;28;20278;-68
2023/03/03 02:28:35;;;;;;;17.10;9.50;;;-0.30;99.90;;;;;;5041212;28;20221;-70
2023/03/03 02:31:02;;;;;;;18.60;11.65;;;-0.30;99.90;;;;;;5056583;28;20205;-70
2023/03/03 02:33:29;;;;;;;21.50;11.48;;;-0.40;99.90;;;;;;5069096;28;20211;-68
2023/03/03 02:35:56;;;;;;;18.80;11.27;;;-0.40;99.90;;;;;;5072798;28;20197;-69
2023/03/03 02:38:29;;;;;;;27.02;13.52;;;-0.40;99.90;;;;;;5073247;28;20225;-69
2023/03/03 02:41:03;;;;;;;22.23;12.02;;;-0.40;99.90;;;;;;5072808;28;20211;-70
2023/03/03 02:43:39;;;;;;;18.58;11.82;;;-0.40;99.90;;;;;;5072350;28;20227;-69
2023/03/03 02:46:05;;;;;;;22.55;11.43;;;-0.40;99.90;;;;;;5072581;28;20216;-69
2023/03/03 02:48:32;;;;;;;20.27;12.15;;;-0.50;99.90;;;;;;5072740;28;20223;-70
2023/03/03 02:50:59;;;;;;;25.50;12.68;;;-0.50;99.90;;;;;;5072552;28;20204;-69
2023/03/03 02:53:25;;;;;;;18.08;10.80;;;-0.50;99.90;;;;;;5072088;28;20226;-69
2023/03/03 02:55:52;;;;;;;20.38;10.80;;;-0.50;99.90;;;;;;5074541;28;20664;-69
2023/03/03 02:58:19;;;;;;;25.25;12.02;;;-0.50;99.90;;;;;;5072907;28;20228;-69
2023/03/03 03:00:47;;;;;;;26.08;12.40;;;-0.40;99.90;;;;;;5073039;28;20204;-69
2023/03/03 03:03:14;;;;;;;19.23;11.43;;;-0.30;99.90;;;;;;5072079;28;20215;-69
2023/03/03 03:05:41;;;;;;;25.88;10.45;;;-0.30;99.90;;;;;;5068079;28;20197;-69
2023/03/03 03:08:07;;;;;;;23.17;12.82;;;-0.20;99.90;;;;;;5052756;28;20240;-69
2023/03/03 03:10:35;;;;;;;21.88;12.50;;;-0.10;99.90;;;;;;5052308;28;20197;-70
2023/03/03 03:13:01;;;;;;;20.00;11.88;;;0.00;99.90;;;;;;5052278;28;20643;-70
2023/03/03 03:15:28;;;;;;;23.42;13.50;;;0.10;99.90;;;;;;5052205;28;20208;-69
2023/03/03 03:17:56;;;;;;;23.77;11.68;;;0.10;99.90;;;;;;5052166;28;20232;-70
2023/03/03 03:20:23;;;;;;;20.77;12.52;;;0.20;99.90;;;;;;5052353;28;20201;-69
2023/03/03 03:22:49;;;;;;;22.15;12.10;;;0.30;99.90;;;;;;5052146;28;20217;-68
2023/03/03 03:25:16;;;;;;;20.73;11.40;;;0.30;99.90;;;;;;5051649;28;20583;-69
2023/03/03 03:27:43;;;;;;;21.20;13.10;;;0.40;99.90;;;;;;5052540;28;20224;-69
2023/03/03 03:30:11;;;;;;;27.88;12.80;;;0.50;99.90;;;;;;5052209;28;20220;-69
2023/03/03 03:32:37;;;;;;;21.10;12.70;;;0.60;99.90;;;;;;5052486;28;20198;-69
2023/03/03 03:35:06;;;;;;;26.42;13.73;;;0.60;99.90;;;;;;5051758;28;20215;-69
2023/03/03 03:37:33;;;;;;;22.30;11.98;;;0.60;99.90;;;;;;5052072;28;20232;-69
2023/03/03 03:40:00;;;;;;;22.40;12.43;;;0.70;99.90;;;;;;5051807;28;20204;-69
2023/03/03 03:42:26;;;;;;;25.90;13.95;;;0.70;99.90;;;;;;5051745;28;20216;-69
2023/03/03 03:44:53;;;;;;;21.17;12.00;;;0.70;99.90;;;;;;5051070;28;20578;-69
2023/03/03 03:47:20;;;;;;;26.15;13.20;;;0.70;99.90;;;;;;5051716;28;20217;-69
2023/03/03 03:49:46;;;;;;;22.58;13.45;;;0.80;99.90;;;;;;5051784;28;20201;-69
2023/03/03 03:52:15;;;;;;;24.83;12.43;;;0.80;99.90;;;;;;5051499;28;20216;-69
2023/03/03 03:54:42;;;;;;;22.50;11.30;;;0.80;99.90;;;;;;5051031;28;20204;-69
2023/03/03 03:57:08;;;;;;;23.85;14.30;;;0.90;99.90;;;;;;5051533;28;20225;-69
2023/03/03 03:59:35;;;;;;;22.27;14.13;;;0.90;99.90;;;;;;5062909;28;20204;-69
2023/03/03 04:02:02;;;;;;;21.02;13.10;;;1.00;99.90;;;;;;5071671;28;20204;-69
2023/03/03 04:04:28;;;;;;;21.40;10.98;;;1.00;99.90;;;;;;5070947;28;20207;-68
2023/03/03 04:06:55;;;;;;;27.52;13.90;;;1.00;99.90;;;;;;5071070;28;20637;-69
2023/03/03 04:09:24;;;;;;;22.70;13.02;;;1.10;99.90;;;;;;5071300;28;20703;-68
2023/03/03 04:11:50;;;;;;;21.55;12.20;;;1.10;99.90;;;;;;5071296;28;20205;-69
2023/03/03 04:14:17;;;;;;;21.60;13.43;;;1.10;99.90;;;;;;5070777;28;20212;-68
2023/03/03 04:16:44;;;;;;;23.15;13.55;;;1.20;99.90;;;;;;5071308;28;20188;-68
2023/03/03 04:19:10;;;;;;;18.83;10.50;;;1.20;99.90;;;;;;5070902;28;20208;-69
2023/03/03 04:21:37;;;;;;;28.35;13.68;;;1.20;99.90;;;;;;5071017;28;20204;-69
2023/03/03 04:24:04;;;;;;;26.00;14.73;;;1.20;99.90;;;;;;5070260;28;20208;-69
2023/03/03 04:26:32;;;;;;;21.52;13.45;;;1.30;99.90;;;;;;5070927;28;20227;-69
2023/03/03 04:29:00;;;;;;;21.92;12.30;;;1.30;99.90;;;;;;5064960;28;20228;-69
2023/03/03 04:31:27;;;;;;;24.90;13.00;;;1.30;99.90;;;;;;5050791;28;20255;-69
2023/03/03 04:33:54;;;;;;;25.42;13.70;;;1.40;99.90;;;;;;5050084;28;20585;-69
2023/03/03 04:36:21;;;;;;;28.65;14.55;;;1.40;99.90;;;;;;5055454;28;20194;-69
2023/03/03 04:38:48;;;;;;;18.58;11.73;;;1.40;99.90;;;;;;5051024;28;20225;-70
2023/03/03 04:41:14;;;;;;;25.50;13.77;;;1.40;99.90;;;;;;5059037;28;20205;-69
2023/03/03 04:43:43;;;;;;;27.02;12.85;;;1.40;99.90;;;;;;5062312;28;20326;-69
2023/03/03 04:46:09;;;;;;;26.10;12.80;;;1.40;99.90;;;;;;5070807;28;20204;-69
2023/03/03 04:48:37;;;;;;;24.13;13.13;;;1.50;99.90;;;;;;5070989;28;20232;-70
2023/03/03 04:51:04;;;;;;;27.15;14.73;;;1.50;99.90;;;;;;5062741;28;20292;-70
2023/03/03 04:53:31;;;;;;;21.85;12.95;;;1.50;99.90;;;;;;5070300;28;20207;-69
2023/03/03 04:55:57;;;;;;;22.80;13.63;;;1.50;99.90;;;;;;5069923;28;20203;-69
2023/03/03 04:58:24;;;;;;;28.73;12.95;;;1.60;99.90;;;;;;5070020;28;20624;-69
2023/03/03 05:00:56;;;;;;;25.15;12.50;;;1.60;99.90;;;;;;5062908;28;20197;-69
2023/03/03 05:03:23;;;;;;;25.65;14.48;;;1.70;99.90;;;;;;5054363;28;20603;-69
2023/03/03 05:05:50;;;;;;;22.05;13.45;;;1.70;99.90;;;;;;5056362;28;20212;-69
2023/03/03 05:08:17;;;;;;;24.92;12.80;;;1.70;99.90;;;;;;5055854;28;20228;-70
2023/03/03 05:10:44;;;;;;;25.38;14.55;;;1.70;99.90;;;;;;5057937;28;20208;-69
2023/03/03 05:13:14;;;;;;;24.92;15.23;;;1.80;99.90;;;;;;5055434;28;20231;-70
2023/03/03 05:15:40;;;;;;;37.13;13.82;;;1.80;99.90;;;;;;5058986;28;20243;-69
2023/03/03 05:18:08;;;;;;;25.60;15.68;;;1.80;99.90;;;;;;5063156;28;20212;-69
2023/03/03 05:20:35;;;;;;;23.20;14.30;;;1.80;99.90;;;;;;5052593;28;20208;-69
2023/03/03 05:23:02;;;;;;;27.75;18.85;;;1.90;99.90;;;;;;5056144;28;20457;-69
2023/03/03 05:25:28;;;;;;;22.63;14.43;;;1.90;99.90;;;;;;5047885;28;20208;-69
2023/03/03 05:27:55;;;;;;;25.08;14.73;;;2.00;99.90;;;;;;5061965;28;20215;-69
2023/03/03 05:30:22;;;;;;;23.88;14.25;;;2.00;99.90;;;;;;5054101;28;20576;-69
2023/03/03 05:32:49;;;;;;;23.13;13.05;;;2.00;99.90;;;;;;5067503;28;20208;-69
2023/03/03 05:35:17;;;;;;;27.63;14.05;;;2.00;99.90;;;;;;5068346;28;20228;-70
2023/03/03 05:37:46;;;;;;;24.15;14.98;;;2.00;99.90;;;;;;5068382;28;20219;-69
2023/03/03 05:40:13;;;;;;;28.13;13.25;;;2.00;99.90;;;;;;5068576;28;20206;-70
2023/03/03 05:42:40;;;;;;;26.42;15.10;;;2.10;99.90;;;;;;5060191;28;20235;-70
2023/03/03 05:45:08;;;;;;;25.05;13.45;;;2.10;99.90;;;;;;5068733;28;20205;-70
2023/03/03 05:47:34;;;;;;;27.48;15.57;;;2.10;99.90;;;;;;5069553;28;20722;-71
2023/03/03 05:50:01;;;;;;;28.30;14.02;;;2.10;99.90;;;;;;5062691;28;20196;-71
2023/03/03 05:52:29;;;;;;;21.13;13.70;;;2.10;99.90;;;;;;5059452;28;20607;-71
2023/03/03 05:54:56;;;;;;;26.40;12.52;;;2.10;99.90;;;;;;5049279;28;20209;-69
2023/03/03 05:57:23;;;;;;;26.17;13.27;;;2.20;99.90;;;;;;5049697;28;20224;-70
2023/03/03 05:59:50;;;;;;;24.42;13.50;;;2.20;99.90;;;;;;5049851;28;20520;-71
2023/03/03 06:02:16;;;;;;;27.58;14.95;;;2.20;99.90;;;;;;5049858;28;20209;-70
2023/03/03 06:04:43;;;;;;;24.58;13.93;;;2.20;99.90;;;;;;5049292;28;20201;-70
2023/03/03 06:07:10;;;;;;;30.00;15.13;;;2.30;99.90;;;;;;5049502;28;20225;-70
2023/03/03 06:09:38;;;;;;;28.00;14.82;;;2.40;99.90;;;;;;5053712;28;20217;-71
2023/03/03 06:12:05;;;;;;;23.73;12.63;;;2.40;99.90;;;;;;5053784;28;20205;-70
2023/03/03 06:14:32;;;;;;;28.08;15.35;;;2.40;99.90;;;;;;5062030;28;20212;-69
2023/03/03 06:16:59;;;;;;;25.48;13.52;;;2.30;99.90;;;;;;5058872;28;20224;-70
2023/03/03 06:19:26;;;;;;;25.05;13.65;;;2.40;99.90;;;;;;5065413;28;20205;-70
2023/03/03 06:21:53;;;;;;;21.38;13.15;;;2.40;99.90;;;;;;5060825;28;20201;-70
2023/03/03 06:24:19;;;;;;;27.88;14.90;;;2.30;99.90;;;;;;5053430;28;20224;-69
2023/03/03 06:26:47;;;;;;;25.95;13.77;;;2.30;99.90;;;;;;5053268;28;20692;-69
2023/03/03 06:29:14;;;;;;;26.05;14.95;;;2.30;99.90;;;;;;5053708;28;20220;-69
2023/03/03 06:31:41;;;;;;;26.15;13.75;;;2.30;99.90;;;;;;5064505;28;20200;-70
2023/03/03 06:34:07;;;;;;;22.83;12.63;;;2.30;99.90;;;;;;5067083;28;20638;-71
2023/03/03 06:36:34;;;;;;;24.27;13.85;;;2.40;99.90;;;;;;5063621;28;20200;-71
2023/03/03 06:39:01;;;;;;;22.60;11.45;;;2.40;99.90;;;;;;5073425;28;20224;-70
2023/03/03 06:41:27;;;;;;;18.40;11.85;;;2.40;99.90;;;;;;5065484;28;20664;-71
2023/03/03 06:43:57;;;;;;;23.17;13.75;;;2.40;99.90;;;;;;5072904;28;20200;-72
2023/03/03 06:46:23;;;;;;;23.23;13.32;;;2.40;99.90;;;;;;5057183;28;20200;-71
2023/03/03 06:48:50;;;;;;;23.92;13.45;;;2.50;99.90;;;;;;5073529;28;20216;-70
2023/03/03 06:51:25;;;;;;;28.13;14.10;;;2.50;99.90;;;;;;5066013;28;20205;-69
2023/03/03 06:53:54;;;;;;;21.63;12.52;;;2.60;99.90;;;;;;5052919;28;20283;-68
2023/03/03 06:56:22;;;;;;;29.02;13.85;;;2.60;99.90;;;;;;5053284;28;20205;-69
2023/03/03 06:58:49;;;;;;;28.10;13.00;;;2.60;99.90;;;;;;5056383;28;20223;-71
2023/03/03 07:01:17;;;;;;;26.60;12.98;;;2.60;99.90;;;;;;5073192;28;20211;-69
2023/03/03 07:03:44;;;;;;;19.05;11.90;;;2.70;99.90;;;;;;5053340;28;20208;-69
2023/03/03 07:06:21;;;;;;;26.73;12.98;;;2.70;99.90;;;;;;5052971;28;20205;-68
2023/03/03 07:08:47;;;;;;;19.55;12.15;;;2.70;99.90;;;;;;5056076;28;20307;-70
2023/03/03 07:11:18;;;;;;;22.60;11.63;;;2.70;99.90;;;;;;5057805;28;20216;-70
2023/03/03 07:13:47;;;;;;;25.80;13.00;;;2.70;99.90;;;;;;5060807;28;20209;-70
2023/03/03 07:16:16;;;;;;;22.52;13.13;;;2.70;99.90;;;;;;5067945;28;20774;-71
2023/03/03 07:18:50;;;;;;;24.05;13.35;;;2.80;99.90;;;;;;5062096;28;20224;-70
2023/03/03 07:21:19;;;;;;;21.25;12.90;;;2.80;99.90;;;;;;5051726;28;20204;-68
2023/03/03 07:23:48;;;;;;;23.42;13.57;;;2.80;99.90;;;;;;5063359;28;20216;-71
2023/03/03 07:26:17;;;;;;;25.48;13.88;;;2.80;99.90;;;;;;5057548;28;20576;-73
2023/03/03 07:28:47;;;;;;;26.83;13.00;;;2.90;99.90;;;;;;5054910;28;20217;-70
2023/03/03 07:31:33;;;;;;;19.70;11.52;;;2.90;99.90;;;;;;5066510;28;20207;-69
2023/03/03 07:34:04;;;;;;;20.65;11.52;;;2.90;99.90;;;;;;5056920;28;20197;-69
2023/03/03 07:36:36;;;;;;;20.95;11.50;;;3.00;99.90;;;;;;5061025;28;20224;-69
2023/03/03 07:39:15;;;;;;;19.30;10.15;;;3.00;99.90;;;;;;5057353;28;20225;-71
2023/03/03 07:41:43;;;;;;;23.55;13.55;;;3.10;99.90;;;;;;5058065;28;20208;-70
2023/03/03 07:44:18;;;;;;;25.52;13.82;;;3.20;99.90;;;;;;5057947;28;20225;-70
2023/03/03 07:46:48;;;;;;;22.30;12.27;;;3.20;99.90;;;;;;5060150;28;20278;-70
2023/03/03 07:49:22;;;;;;;20.30;11.73;;;3.30;99.90;;;;;;5055345;28;20213;-71
2023/03/03 07:51:53;;;;;;;20.98;12.70;;;3.40;99.90;;;;;;5054986;28;20560;-70
2023/03/03 07:54:39;;;;;;;18.77;10.57;;;3.60;99.90;;;;;;5071701;28;20204;-70
2023/03/03 07:57:18;;;;;;;25.65;11.65;;;4.10;99.90;;;;;;5063923;28;20246;-70
2023/03/03 07:59:48;;;;;;;20.05;10.98;;;4.50;99.90;;;;;;5061019;28;20211;-69
2023/03/03 08:02:39;;;;;;;22.88;10.95;;;5.00;99.90;;;;;;5066827;28;20196;-69
2023/03/03 08:05:29;;;;;;;19.27;10.98;;;5.60;99.90;;;;;;5071396;28;20200;-69
2023/03/03 08:08:02;;;;;;;18.50;10.50;;;5.90;99.90;;;;;;5071744;28;20216;-69
2023/03/03 08:10:36;;;;;;;18.52;12.30;;;6.10;99.90;;;;;;5071606;28;20203;-69
2023/03/03 08:13:15;;;;;;;18.15;11.52;;;6.20;99.90;;;;;;5056217;28;20196;-72
2023/03/03 08:15:42;;;;;;;18.02;11.00;;;6.20;99.90;;;;;;5063149;28;20200;-70
2023/03/03 08:18:20;;;;;;;21.08;11.15;;;6.60;99.90;;;;;;5065823;28;20222;-70
2023/03/03 08:21:01;;;;;;;20.00;11.77;;;7.40;99.90;;;;;;5063944;22;20233;-89
2023/03/03 08:23:33;;;;;;;18.17;12.05;;;8.60;99.50;;;;;;5037901;28;20582;-90
2023/03/03 08:26:03;;;;;;;18.00;11.45;;;9.10;97.70;;;;;;5037858;28;20276;-89
2023/03/03 08:28:30;;;;;;;18.75;11.18;;;8.90;96.90;;;;;;5019776;28;20248;-89
2023/03/03 08:30:59;;;;;;;16.67;10.27;;;8.60;97.60;;;;;;5037698;28;20750;-90
2023/03/03 08:33:27;;;;;;;19.42;11.55;;;9.00;97.50;;;;;;5036980;28;20256;-90
2023/03/03 08:35:58;;;;;;;20.95;11.10;;;9.60;96.60;;;;;;5039378;28;20213;-89
2023/03/03 08:38:29;;;;;;;16.00;11.52;;;10.60;95.10;;;;;;5038606;28;20292;-91
2023/03/03 08:41:03;;;;;;;18.77;11.15;;;11.50;93.70;;;;;;5036682;28;20229;-91
2023/03/03 08:43:30;;;;;;;18.98;12.13;;;12.30;92.70;;;;;;5036410;28;20255;-92
2023/03/03 08:46:04;;;;;;;19.98;12.40;;;13.20;91.40;;;;;;5037006;28;20221;-92
2023/03/03 08:48:32;;;;;;;15.68;11.40;;;13.90;90.70;;;;;;5036521;28;20222;-91
2023/03/03 08:51:01;;;;;;;16.02;11.60;;;14.60;89.10;;;;;;5036039;28;20228;-92
2023/03/03 08:53:32;;;;;;;17.93;11.77;;;14.90;87.00;;;;;;5036764;28;20212;-90
2023/03/03 08:56:00;;;;;;;19.40;13.27;;;15.50;85.20;;;;;;5037300;28;20867;-90
2023/03/03 08:58:27;;;;;;;17.10;11.67;;;15.80;82.80;;;;;;5037124;28;20456;-88
2023/03/03 09:01:00;;;;;;;20.47;13.40;;;15.80;83.90;;;;;;5036331;28;20495;-90
2023/03/03 09:03:30;;;;;;;18.33;11.30;;;16.20;83.20;;;;;;5037209;28;20502;-90
2023/03/03 09:06:00;;;;;;;20.50;13.43;;;16.60;82.00;;;;;;5036747;28;20560;-91
2023/03/03 09:08:32;;;;;;;16.43;12.07;;;17.50;79.90;;;;;;5036422;28;20487;-90
2023/03/03 09:10:59;;;;;;;19.87;13.07;;;18.40;77.90;;;;;;5036326;28;20502;-90
2023/03/03 09:13:26;;;;;;;19.70;13.70;;;18.60;76.60;;;;;;5035310;28;20481;-91
2023/03/03 09:15:53;;;;;;;19.57;12.83;;;18.20;76.30;;;;;;5036094;28;20448;-91
2023/03/03 09:18:24;;;;;;;21.63;13.70;;;18.00;76.70;;;;;;5035966;28;20479;-91
2023/03/03 09:20:56;;;;;;;19.80;13.43;;;18.10;76.70;;;;;;5044444;28;20487;-91
2023/03/03 09:23:36;;;;;;;17.67;12.77;;;17.90;75.10;;;;;;5049485;28;20813;-91
2023/03/03 09:26:26;;;;;;;21.47;12.80;;;17.00;75.90;;;;;;5035343;28;20456;-91
2023/03/03 09:28:57;;;;;;;17.87;12.73;;;15.80;76.70;;;;;;5047172;28;20491;-90
2023/03/03 09:31:33;;;;;;;19.10;13.47;;;14.30;80.30;;;;;;5056093;28;20461;-89
2023/03/03 09:34:12;;;;;;;19.53;14.57;;;13.60;81.30;;;;;;5040931;28;20467;-92
2023/03/03 09:36:44;;;;;;;20.17;12.43;;;12.80;83.60;;;;;;5035848;28;20459;-91
2023/03/03 09:39:25;;;;;;;19.48;12.90;;;12.30;84.70;;;;;;5036045;28;20464;-90
2023/03/03 09:42:17;;;;;;;21.45;13.82;;;11.90;87.00;;;;;;5035553;28;20198;-91
2023/03/03 09:45:08;;;;;;;19.45;13.35;;;11.60;87.00;;;;;;5034821;28;20233;-92
2023/03/03 09:47:50;;;;;;;19.67;12.23;;;11.50;86.90;;;;;;5035870;28;20300;-91
2023/03/03 09:50:30;;;;;;;23.13;13.73;;;11.50;88.40;;;;;;5034755;28;20229;-92
2023/03/03 09:53:06;;;;;;;20.45;12.80;;;12.00;87.70;;;;;;5034797;28;20233;-91
2023/03/03 09:55:48;;;;;;;22.00;14.48;;;11.90;88.10;;;;;;5034276;28;20260;-91
2023/03/03 09:58:45;;;;;;;16.90;12.52;;;12.10;87.90;;;;;;5033019;28;20217;-91
2023/03/03 10:01:43;;;;;;;16.13;10.85;;;12.00;87.20;;;;;;5003593;28;20226;-91
2023/03/03 10:04:43;;;;;;;20.38;12.48;;;12.30;87.60;;;;;;5027661;28;20658;-90
2023/03/03 10:10:44;;;;;;;17.48;11.82;;;12.60;88.00;;;;;;5054461;28;20213;-91
2023/03/03 10:13:21;;;;;;;23.35;13.45;;;12.50;87.80;;;;;;5052972;28;20207;-91
2023/03/03 10:16:00;;;;;;;17.57;11.77;;;13.10;86.40;;;;;;5055310;28;20209;-91
2023/03/03 10:18:32;;;;;;;18.13;11.88;;;13.40;85.60;;;;;;5054061;28;20481;-90
2023/03/03 10:21:09;;;;;;;20.02;12.80;;;13.10;85.90;;;;;;5038636;28;20233;-90
2023/03/03 10:23:55;;;;;;;23.27;13.07;;;13.10;85.50;;;;;;5034008;28;20239;-90
2023/03/03 10:26:45;;;;;;;20.35;13.50;;;13.20;84.70;;;;;;5034223;28;20198;-92
2023/03/03 10:29:22;;;;;;;15.98;12.65;;;12.80;86.30;;;;;;5021353;28;20225;-92
2023/03/03 10:32:09;;;;;;;15.38;10.95;;;12.30;86.10;;;;;;5034817;28;20206;-92
2023/03/03 10:34:54;;;;;;;16.90;11.82;;;12.30;87.60;;;;;;5035527;28;20214;-92
2023/03/03 10:37:29;;;;;;;16.60;12.10;;;12.40;87.30;;;;;;5038074;28;20288;-92
2023/03/03 10:40:13;;;;;;;17.17;12.48;;;12.20;87.40;;;;;;5048757;28;20228;-93
2023/03/03 10:43:01;;;;;;;17.00;10.85;;;12.40;87.70;;;;;;5055189;28;20216;-92
2023/03/03 10:45:56;;;;;;;18.20;12.17;;;12.90;86.80;;;;;;5052293;28;20201;-92
2023/03/03 10:48:45;;;;;;;19.03;12.43;;;13.90;85.60;;;;;;5037211;28;20480;-91
2023/03/03 10:51:24;;;;;;;14.97;10.83;;;15.40;83.40;;;;;;5034322;28;20492;-92
2023/03/03 10:54:03;;;;;;;15.60;11.63;;;17.70;80.20;;;;;;5033971;28;20468;-93
2023/03/03 10:56:42;;;;;;;15.40;12.47;;;19.50;76.50;;;;;;5037724;28;20480;-91
2023/03/03 10:59:31;;;;;;;15.17;11.93;;;20.20;73.60;;;;;;5038579;28;20463;-93
2023/03/03 11:02:00;;;;;;;16.63;12.27;;;19.30;73.20;;;;;;5039556;28;20487;-92
2023/03/03 11:04:55;;;;;;;16.23;12.60;;;19.50;74.40;;;;;;5038697;28;20972;-92
2023/03/03 11:07:26;;;;;;;16.50;12.40;;;21.20;71.90;;;;;;5036113;28;20492;-92
2023/03/03 11:10:04;;;;;;;17.03;12.97;;;20.90;71.70;;;;;;5038412;28;20498;-93
2023/03/03 11:12:48;;;;;;;17.30;13.33;;;20.70;71.40;;;;;;5038765;28;20463;-92
2023/03/03 11:15:33;;;;;;;16.50;12.70;;;19.80;71.80;;;;;;5038357;28;20456;-92
2023/03/03 11:18:16;;;;;;;15.30;12.33;;;18.80;73.60;;;;;;5038511;28;20814;-93
2023/03/03 11:20:52;;;;;;;19.47;13.33;;;18.50;73.30;;;;;;5038244;28;20483;-91
2023/03/03 11:23:49;;;;;;;18.60;11.90;;;17.70;74.80;;;;;;5037874;28;20465;-92
2023/03/03 11:26:31;;;;;;;17.47;12.27;;;16.90;75.20;;;;;;5037381;28;20461;-92
2023/03/03 11:29:11;;;;;;;17.47;13.10;;;15.70;76.70;;;;;;5037790;28;20484;-92
2023/03/03 11:31:46;;;;;;;18.90;13.17;;;15.00;78.30;;;;;;5038642;28;20503;-91
2023/03/03 11:34:27;;;;;;;16.63;12.63;;;14.50;79.80;;;;;;5045192;28;20433;-91
2023/03/03 11:37:01;;;;;;;19.83;12.93;;;14.10;79.90;;;;;;5051313;28;20459;-93
2023/03/03 11:39:28;;;;;;;17.83;12.40;;;13.60;81.50;;;;;;5046311;28;20455;-93
2023/03/03 11:42:06;;;;;;;19.67;13.10;;;13.10;81.90;;;;;;5042950;28;20503;-93
2023/03/03 11:44:37;;;;;;;18.30;12.30;;;12.70;85.40;;;;;;5043930;28;20463;-92
2023/03/03 11:47:17;;;;;;;19.23;11.10;;;12.20;85.50;;;;;;5039665;28;20611;-90
2023/03/03 11:49:49;;;;;;;15.27;11.00;;;12.00;86.60;;;;;;5035951;28;20479;-91
2023/03/03 11:52:28;;;;;;;17.13;12.80;;;11.80;85.50;;;;;;5056833;28;20459;-91
2023/03/03 11:55:01;;;;;;;17.07;11.67;;;11.40;85.90;;;;;;5055365;28;20204;-91
2023/03/03 11:57:35;;;;;;;18.77;13.15;;;11.30;87.10;;;;;;5057303;28;20483;-91
2023/03/03 12:00:16;;;;;;;18.40;11.95;;;11.20;87.80;;;;;;5057109;28;20697;-92
2023/03/03 12:03:24;;;;;;;18.95;12.30;;;11.30;87.70;;;;;;5055677;28;20201;-92
2023/03/03 12:06:06;;;;;;;17.55;12.45;;;11.30;87.60;;;;;;5055501;28;20224;-91
2023/03/03 12:08:58;;;;;;;16.98;12.38;;;11.40;88.30;;;;;;5055118;28;20307;-90
2023/03/03 12:11:28;;;;;;;20.77;13.02;;;11.40;88.00;;;;;;5029887;28;20298;-91
2023/03/03 12:14:02;;;;;;;20.13;12.35;;;11.70;87.40;;;;;;5054750;28;20201;-91
2023/03/03 12:16:44;;;;;;;19.85;12.98;;;12.40;85.80;;;;;;5055675;28;20201;-90
2023/03/03 12:19:25;;;;;;;21.17;12.60;;;13.00;85.90;;;;;;5056938;28;20200;-92
2023/03/03 12:22:14;;;;;;;19.35;13.23;;;13.10;83.00;;;;;;5056276;28;20205;-92
2023/03/03 12:24:51;;;;;;;20.73;12.17;;;14.20;82.50;;;;;;5041487;28;20215;-92
2023/03/03 12:27:29;;;;;;;17.97;12.83;;;16.10;79.10;;;;;;5058492;28;20490;-91
2023/03/03 12:30:06;;;;;;;15.80;11.60;;;18.00;76.50;;;;;;5058441;28;20497;-92
2023/03/03 12:32:48;;;;;;;17.20;12.70;;;19.20;75.00;;;;;;5054422;28;20464;-93
2023/03/03 12:35:25;;;;;;;21.73;12.90;;;20.10;72.50;;;;;;5031941;28;20463;-92
2023/03/03 12:38:02;;;;;;;16.07;12.57;;;20.30;71.10;;;;;;5042100;28;20468;-92
2023/03/03 12:40:33;;;;;;;18.37;12.43;;;20.40;71.20;;;;;;5047715;28;20478;-94
2023/03/03 12:43:21;;;;;;;17.80;13.00;;;20.40;71.40;;;;;;5051139;28;20464;-94
2023/03/03 12:45:59;;;;;;;15.97;13.27;;;20.40;68.90;;;;;;5047884;28;20457;-93
2023/03/03 12:48:36;;;;;;;16.07;12.70;;;20.40;69.00;;;;;;5046744;28;20460;-93
2023/03/03 12:51:10;;;;;;;17.40;12.07;;;20.30;68.70;;;;;;5045604;28;20484;-93
2023/03/03 12:53:52;;;;;;;20.40;13.07;;;20.30;68.60;;;;;;5045519;28;20457;-93
2023/03/03 12:56:25;;;;;;;16.53;13.03;;;20.50;68.40;;;;;;5044635;28;20463;-93
2023/03/03 12:58:56;;;;;;;18.80;12.90;;;20.80;69.40;;;;;;5044084;28;20451;-91
2023/03/03 13:01:34;;;;;;;13.30;11.23;;;21.30;69.10;;;;;;5047010;28;20490;-92
2023/03/03 13:04:08;;;;;;;17.10;12.40;;;21.50;67.90;;;;;;5044507;28;20462;-92